sensor_id;sensor_type;location;lat;lon;timestamp;temperature;humidity
1355;DHT22;671;48.972;9.276;2023-05-14T00:01:23;13.80;99.90
1355;DHT22;671;48.972;9.276;2023-05-14T00:03:49;13.70;99.90
1355;DHT22;671;48.972;9.276;2023-05-14T00:06:16;13.60;99.90
1355;DHT22;671;48.972;9.276;2023-05-14T00:08:42;13.70;99.90
1355;DHT22;671;48.972;9.276;2023-05-14T00:11:09;13.60;99.90
1355;DHT22;671;48.972;9.276;2023-05-14T00:13:35;13.60;99.90
1355;DHT22;671;48.972;9.276;2023-05-14T00:16:02;13.50;99.90
1355;DHT22;671;48.972;9.276;2023-05-14T00:18:29;13.40;99.90
1355;DHT22;671;48.972;9.276;2023-05-14T00:20:55;13.30;99.90
1355;DHT22;671;48.972;9.276;2023-05-14T00:23:23;13.20;99.90
1355;DHT22;671;48.972;9.276;2023-05-14T00:25:49;13.10;99.90
1355;DHT22;671;48.972;9.276;2023-05-14T00:28:16;12.90;99.90
1355;DHT22;671;48.972;9.276;2023-05-14T00:30:43;12.80;99.90
1355;DHT22;671;48.972;9.276;2023-05-14T00:33:10;12.70;99.90
1355;DHT22;671;48.972;9.276;2023-05-14T00:35:36;12.70;99.90
1355;DHT22;671;48.972;9.276;2023-05-14T00:38:03;12.60;99.90
1355;DHT22;671;48.972;9.276;2023-05-14T00:40:29;12.50;99.90
1355;DHT22;671;48.972;9.276;2023-05-14T00:42:56;12.40;99.90
1355;DHT22;671;48.972;9.276;2023-05-14T00:45:22;12.30;99.90
1355;DHT22;671;48.972;9.276;2023-05-14T00:47:49;12.30;99.90
1355;DHT22;671;48.972;9.276;2023-05-14T00:50:17;12.20;99.90
1355;DHT22;671;48.972;9.276;2023-05-14T00:52:43;12.10;99.90
1355;DHT22;671;48.972;9.276;2023-05-14T00:55:11;12.00;99.90
1355;DHT22;671;48.972;9.276;2023-05-14T00:57:41;12.00;99.90
1355;DHT22;671;48.972;9.276;2023-05-14T01:00:08;11.90;99.90
1355;DHT22;671;48.972;9.276;2023-05-14T01:02:35;11.80;99.90
1355;DHT22;671;48.972;9.276;2023-05-14T01:05:02;11.70;99.90
1355;DHT22;671;48.972;9.276;2023-05-14T01:07:43;11.70;99.90
1355;DHT22;671;48.972;9.276;2023-05-14T01:10:41;11.60;99.90
1355;DHT22;671;48.972;9.276;2023-05-14T01:13:22;11.60;99.90
1355;DHT22;671;48.972;9.276;2023-05-14T01:15:57;11.50;99.90
1355;DHT22;671;48.972;9.276;2023-05-14T01:18:26;11.40;99.90
1355;DHT22;671;48.972;9.276;2023-05-14T01:20:53;11.40;99.90
1355;DHT22;671;48.972;9.276;2023-05-14T01:23:20;11.20;99.90
1355;DHT22;671;48.972;9.276;2023-05-14T01:25:46;11.20;99.90
1355;DHT22;671;48.972;9.276;2023-05-14T01:28:22;11.10;99.90
1355;DHT22;671;48.972;9.276;2023-05-14T01:31:09;11.00;99.90
1355;DHT22;671;48.972;9.276;2023-05-14T01:33:39;11.00;99.90
1355;DHT22;671;48.972;9.276;2023-05-14T01:36:07;10.90;99.90
1355;DHT22;671;48.972;9.276;2023-05-14T01:38:35;10.90;99.90
1355;DHT22;671;48.972;9.276;2023-05-14T01:41:02;10.90;99.90
1355;DHT22;671;48.972;9.276;2023-05-14T01:43:30;10.80;99.90
1355;DHT22;671;48.972;9.276;2023-05-14T01:45:57;10.80;99.90
1355;DHT22;671;48.972;9.276;2023-05-14T01:48:24;10.80;99.90
1355;DHT22;671;48.972;9.276;2023-05-14T01:50:50;10.70;99.90
1355;DHT22;671;48.972;9.276;2023-05-14T01:53:17;10.70;99.90
1355;DHT22;671;48.972;9.276;2023-05-14T01:55:43;10.70;99.90
1355;DHT22;671;48.972;9.276;2023-05-14T01:58:10;10.60;99.90
1355;DHT22;671;48.972;9.276;2023-05-14T02:00:36;10.60;99.90
1355;DHT22;671;48.972;9.276;2023-05-14T02:03:03;10.60;99.90
1355;DHT22;671;48.972;9.276;2023-05-14T02:05:30;10.60;99.90
1355;DHT22;671;48.972;9.276;2023-05-14T02:07:56;10.50;99.90
1355;DHT22;671;48.972;9.276;2023-05-14T02:10:23;10.50;99.90
1355;DHT22;671;48.972;9.276;2023-05-14T02:12:49;10.50;99.90
1355;DHT22;671;48.972;9.276;2023-05-14T02:15:16;10.40;99.90
1355;DHT22;671;48.972;9.276;2023-05-14T02:17:42;10.40;99.90
1355;DHT22;671;48.972;9.276;2023-05-14T02:20:09;10.40;99.90
1355;DHT22;671;48.972;9.276;2023-05-14T02:22:36;10.30;99.90
1355;DHT22;671;48.972;9.276;2023-05-14T02:25:02;10.30;99.90
1355;DHT22;671;48.972;9.276;2023-05-14T02:27:29;10.30;99.90
1355;DHT22;671;48.972;9.276;2023-05-14T02:29:55;10.30;99.90
1355;DHT22;671;48.972;9.276;2023-05-14T02:32:26;10.30;99.90
1355;DHT22;671;48.972;9.276;2023-05-14T02:34:53;10.20;99.90
1355;DHT22;671;48.972;9.276;2023-05-14T02:37:20;10.20;99.90
1355;DHT22;671;48.972;9.276;2023-05-14T02:39:46;10.20;99.90
1355;DHT22;671;48.972;9.276;2023-05-14T02:42:13;10.20;99.90
1355;DHT22;671;48.972;9.276;2023-05-14T02:44:39;10.20;99.90
1355;DHT22;671;48.972;9.276;2023-05-14T02:47:06;10.10;99.90
1355;DHT22;671;48.972;9.276;2023-05-14T02:49:32;10.10;99.90
1355;DHT22;671;48.972;9.276;2023-05-14T02:51:58;10.10;99.90
1355;DHT22;671;48.972;9.276;2023-05-14T02:54:26;10.10;99.90
1355;DHT22;671;48.972;9.276;2023-05-14T02:56:52;10.00;99.90
1355;DHT22;671;48.972;9.276;2023-05-14T02:59:19;10.00;99.90
1355;DHT22;671;48.972;9.276;2023-05-14T03:01:45;10.00;99.90
1355;DHT22;671;48.972;9.276;2023-05-14T03:04:12;10.00;99.90
1355;DHT22;671;48.972;9.276;2023-05-14T03:06:38;10.00;99.90
1355;DHT22;671;48.972;9.276;2023-05-14T03:09:05;10.00;99.90
1355;DHT22;671;48.972;9.276;2023-05-14T03:11:31;10.00;99.90
1355;DHT22;671;48.972;9.276;2023-05-14T03:13:58;10.00;99.90
1355;DHT22;671;48.972;9.276;2023-05-14T03:16:25;10.00;99.90
1355;DHT22;671;48.972;9.276;2023-05-14T03:18:51;9.90;99.90
1355;DHT22;671;48.972;9.276;2023-05-14T03:21:18;10.00;99.90
1355;DHT22;671;48.972;9.276;2023-05-14T03:23:44;10.00;99.90
1355;DHT22;671;48.972;9.276;2023-05-14T03:26:11;10.00;99.90
1355;DHT22;671;48.972;9.276;2023-05-14T03:28:38;9.90;99.90
1355;DHT22;671;48.972;9.276;2023-05-14T03:31:05;10.00;99.90
1355;DHT22;671;48.972;9.276;2023-05-14T03:33:31;10.00;99.90
1355;DHT22;671;48.972;9.276;2023-05-14T03:35:59;10.10;99.90
1355;DHT22;671;48.972;9.276;2023-05-14T03:38:25;10.20;99.90
1355;DHT22;671;48.972;9.276;2023-05-14T03:40:52;10.20;99.90
1355;DHT22;671;48.972;9.276;2023-05-14T03:43:18;10.30;99.90
1355;DHT22;671;48.972;9.276;2023-05-14T03:45:46;10.30;99.90
1355;DHT22;671;48.972;9.276;2023-05-14T03:48:13;10.30;99.90
1355;DHT22;671;48.972;9.276;2023-05-14T03:50:39;10.40;99.90
1355;DHT22;671;48.972;9.276;2023-05-14T03:53:06;10.50;99.90
1355;DHT22;671;48.972;9.276;2023-05-14T03:55:33;10.60;99.90
1355;DHT22;671;48.972;9.276;2023-05-14T03:57:59;10.70;99.90
1355;DHT22;671;48.972;9.276;2023-05-14T04:00:26;10.70;99.90
1355;DHT22;671;48.972;9.276;2023-05-14T04:02:52;10.80;99.90
1355;DHT22;671;48.972;9.276;2023-05-14T04:05:19;10.80;99.90
1355;DHT22;671;48.972;9.276;2023-05-14T04:07:46;10.80;99.90
1355;DHT22;671;48.972;9.276;2023-05-14T04:10:12;10.90;99.90
1355;DHT22;671;48.972;9.276;2023-05-14T04:12:40;10.90;99.90
1355;DHT22;671;48.972;9.276;2023-05-14T04:15:07;11.00;99.90
1355;DHT22;671;48.972;9.276;2023-05-14T04:17:34;11.10;99.90
1355;DHT22;671;48.972;9.276;2023-05-14T04:20:00;11.20;99.90
1355;DHT22;671;48.972;9.276;2023-05-14T04:22:27;11.20;99.90
1355;DHT22;671;48.972;9.276;2023-05-14T04:24:53;11.20;99.90
1355;DHT22;671;48.972;9.276;2023-05-14T04:27:20;11.30;99.90
1355;DHT22;671;48.972;9.276;2023-05-14T04:29:47;11.30;99.90
1355;DHT22;671;48.972;9.276;2023-05-14T04:32:14;11.30;99.90
1355;DHT22;671;48.972;9.276;2023-05-14T04:34:40;11.30;99.90
1355;DHT22;671;48.972;9.276;2023-05-14T04:37:07;11.40;99.90
1355;DHT22;671;48.972;9.276;2023-05-14T04:39:34;11.40;99.90
1355;DHT22;671;48.972;9.276;2023-05-14T04:42:00;11.50;99.90
1355;DHT22;671;48.972;9.276;2023-05-14T04:44:27;11.50;99.90
1355;DHT22;671;48.972;9.276;2023-05-14T04:46:53;11.50;99.90
1355;DHT22;671;48.972;9.276;2023-05-14T04:49:20;11.60;99.90
1355;DHT22;671;48.972;9.276;2023-05-14T04:51:46;11.60;99.90
1355;DHT22;671;48.972;9.276;2023-05-14T04:54:13;11.70;99.90
1355;DHT22;671;48.972;9.276;2023-05-14T04:56:40;11.60;99.90
1355;DHT22;671;48.972;9.276;2023-05-14T04:59:06;11.70;99.90
1355;DHT22;671;48.972;9.276;2023-05-14T05:01:33;11.80;99.90
1355;DHT22;671;48.972;9.276;2023-05-14T05:03:59;11.80;99.90
1355;DHT22;671;48.972;9.276;2023-05-14T05:06:26;11.90;99.90
1355;DHT22;671;48.972;9.276;2023-05-14T05:08:52;11.90;99.90
1355;DHT22;671;48.972;9.276;2023-05-14T05:11:18;11.90;99.90
1355;DHT22;671;48.972;9.276;2023-05-14T05:13:45;12.00;99.90
1355;DHT22;671;48.972;9.276;2023-05-14T05:16:11;11.90;99.90
1355;DHT22;671;48.972;9.276;2023-05-14T05:18:38;12.00;99.90
1355;DHT22;671;48.972;9.276;2023-05-14T05:21:05;12.10;99.90
1355;DHT22;671;48.972;9.276;2023-05-14T05:23:32;12.10;99.90
1355;DHT22;671;48.972;9.276;2023-05-14T05:25:58;12.20;99.90
1355;DHT22;671;48.972;9.276;2023-05-14T05:28:25;12.40;99.90
1355;DHT22;671;48.972;9.276;2023-05-14T05:30:51;12.50;99.90
1355;DHT22;671;48.972;9.276;2023-05-14T05:33:18;12.70;99.90
1355;DHT22;671;48.972;9.276;2023-05-14T05:35:45;12.80;99.90
1355;DHT22;671;48.972;9.276;2023-05-14T05:38:11;13.00;99.90
1355;DHT22;671;48.972;9.276;2023-05-14T05:40:38;13.10;99.90
1355;DHT22;671;48.972;9.276;2023-05-14T05:43:04;13.30;99.90
1355;DHT22;671;48.972;9.276;2023-05-14T05:45:31;13.40;99.90
1355;DHT22;671;48.972;9.276;2023-05-14T05:47:57;13.50;99.90
1355;DHT22;671;48.972;9.276;2023-05-14T05:50:25;13.60;99.90
1355;DHT22;671;48.972;9.276;2023-05-14T05:52:51;13.80;99.90
1355;DHT22;671;48.972;9.276;2023-05-14T05:55:18;13.90;99.90
1355;DHT22;671;48.972;9.276;2023-05-14T05:57:45;14.10;99.90
1355;DHT22;671;48.972;9.276;2023-05-14T06:00:11;14.30;99.90
1355;DHT22;671;48.972;9.276;2023-05-14T06:02:39;14.30;99.90
1355;DHT22;671;48.972;9.276;2023-05-14T06:05:07;14.30;99.90
1355;DHT22;671;48.972;9.276;2023-05-14T06:07:34;14.20;99.90
1355;DHT22;671;48.972;9.276;2023-05-14T06:10:01;14.10;99.90
1355;DHT22;671;48.972;9.276;2023-05-14T06:12:28;14.10;99.90
1355;DHT22;671;48.972;9.276;2023-05-14T06:14:55;14.10;99.90
1355;DHT22;671;48.972;9.276;2023-05-14T06:17:23;14.10;99.90
1355;DHT22;671;48.972;9.276;2023-05-14T06:19:50;14.20;99.90
1355;DHT22;671;48.972;9.276;2023-05-14T06:22:18;14.30;99.90
1355;DHT22;671;48.972;9.276;2023-05-14T06:24:44;14.50;99.90
1355;DHT22;671;48.972;9.276;2023-05-14T06:27:11;14.80;99.90
1355;DHT22;671;48.972;9.276;2023-05-14T06:29:37;15.00;99.90
1355;DHT22;671;48.972;9.276;2023-05-14T06:32:04;15.20;99.90
1355;DHT22;671;48.972;9.276;2023-05-14T06:34:31;15.40;99.90
1355;DHT22;671;48.972;9.276;2023-05-14T06:36:57;15.60;99.90
1355;DHT22;671;48.972;9.276;2023-05-14T06:39:24;15.80;99.90
1355;DHT22;671;48.972;9.276;2023-05-14T06:41:50;15.90;99.90
1355;DHT22;671;48.972;9.276;2023-05-14T06:44:18;16.00;99.90
1355;DHT22;671;48.972;9.276;2023-05-14T06:46:44;16.00;99.90
1355;DHT22;671;48.972;9.276;2023-05-14T06:49:11;16.00;99.90
1355;DHT22;671;48.972;9.276;2023-05-14T06:51:37;15.90;99.90
1355;DHT22;671;48.972;9.276;2023-05-14T06:54:04;16.00;99.90
1355;DHT22;671;48.972;9.276;2023-05-14T06:56:30;15.90;99.90
1355;DHT22;671;48.972;9.276;2023-05-14T06:58:57;15.90;99.90
1355;DHT22;671;48.972;9.276;2023-05-14T07:01:23;16.00;99.90
1355;DHT22;671;48.972;9.276;2023-05-14T07:03:50;16.10;99.90
1355;DHT22;671;48.972;9.276;2023-05-14T07:06:16;16.40;99.90
1355;DHT22;671;48.972;9.276;2023-05-14T07:08:43;16.60;99.90
1355;DHT22;671;48.972;9.276;2023-05-14T07:11:13;16.60;99.90
1355;DHT22;671;48.972;9.276;2023-05-14T07:13:40;16.60;99.90
1355;DHT22;671;48.972;9.276;2023-05-14T07:16:07;16.60;99.90
1355;DHT22;671;48.972;9.276;2023-05-14T07:18:36;16.70;99.90
1355;DHT22;671;48.972;9.276;2023-05-14T07:21:03;16.70;99.90
1355;DHT22;671;48.972;9.276;2023-05-14T07:23:32;16.70;99.90
1355;DHT22;671;48.972;9.276;2023-05-14T07:26:02;16.80;99.90
1355;DHT22;671;48.972;9.276;2023-05-14T07:28:28;16.90;99.90
1355;DHT22;671;48.972;9.276;2023-05-14T07:30:55;16.90;99.90
1355;DHT22;671;48.972;9.276;2023-05-14T07:33:21;16.90;99.90
1355;DHT22;671;48.972;9.276;2023-05-14T07:35:48;16.90;99.90
1355;DHT22;671;48.972;9.276;2023-05-14T07:38:15;16.90;99.90
1355;DHT22;671;48.972;9.276;2023-05-14T07:40:42;16.80;99.90
1355;DHT22;671;48.972;9.276;2023-05-14T07:43:09;16.80;99.90
1355;DHT22;671;48.972;9.276;2023-05-14T07:45:36;16.80;99.90
1355;DHT22;671;48.972;9.276;2023-05-14T07:48:04;16.90;99.90
1355;DHT22;671;48.972;9.276;2023-05-14T07:50:30;17.00;99.90
1355;DHT22;671;48.972;9.276;2023-05-14T07:52:57;17.20;99.90
1355;DHT22;671;48.972;9.276;2023-05-14T07:55:23;17.50;99.90
1355;DHT22;671;48.972;9.276;2023-05-14T07:57:50;17.60;99.90
1355;DHT22;671;48.972;9.276;2023-05-14T08:00:16;17.70;99.90
1355;DHT22;671;48.972;9.276;2023-05-14T08:02:43;17.80;99.90
1355;DHT22;671;48.972;9.276;2023-05-14T08:05:10;18.00;99.90
1355;DHT22;671;48.972;9.276;2023-05-14T08:07:37;18.20;99.90
1355;DHT22;671;48.972;9.276;2023-05-14T08:10:04;18.40;99.90
1355;DHT22;671;48.972;9.276;2023-05-14T08:12:32;18.60;99.90
1355;DHT22;671;48.972;9.276;2023-05-14T08:14:58;18.80;99.90
1355;DHT22;671;48.972;9.276;2023-05-14T08:17:25;18.80;99.90
1355;DHT22;671;48.972;9.276;2023-05-14T08:19:51;18.90;99.90
1355;DHT22;671;48.972;9.276;2023-05-14T08:22:19;18.90;99.90
1355;DHT22;671;48.972;9.276;2023-05-14T08:24:45;18.80;99.90
1355;DHT22;671;48.972;9.276;2023-05-14T08:27:12;18.80;99.90
1355;DHT22;671;48.972;9.276;2023-05-14T08:29:38;18.80;99.90
1355;DHT22;671;48.972;9.276;2023-05-14T08:32:05;18.80;99.90
1355;DHT22;671;48.972;9.276;2023-05-14T08:34:31;18.80;99.90
1355;DHT22;671;48.972;9.276;2023-05-14T08:36:58;19.00;99.90
1355;DHT22;671;48.972;9.276;2023-05-14T08:39:24;19.20;99.90
1355;DHT22;671;48.972;9.276;2023-05-14T08:41:51;19.40;99.90
1355;DHT22;671;48.972;9.276;2023-05-14T08:44:19;19.70;99.90
1355;DHT22;671;48.972;9.276;2023-05-14T08:46:49;20.00;99.90
1355;DHT22;671;48.972;9.276;2023-05-14T08:52:07;20.40;99.90
1355;DHT22;671;48.972;9.276;2023-05-14T08:54:34;20.70;99.90
1355;DHT22;671;48.972;9.276;2023-05-14T08:57:02;20.80;99.90
1355;DHT22;671;48.972;9.276;2023-05-14T08:59:30;20.80;99.90
1355;DHT22;671;48.972;9.276;2023-05-14T09:02:00;20.90;99.90
1355;DHT22;671;48.972;9.276;2023-05-14T09:04:27;20.60;99.90
1355;DHT22;671;48.972;9.276;2023-05-14T09:06:55;20.30;99.90
1355;DHT22;671;48.972;9.276;2023-05-14T09:09:22;20.10;99.90
1355;DHT22;671;48.972;9.276;2023-05-14T09:11:50;20.10;99.90
1355;DHT22;671;48.972;9.276;2023-05-14T09:14:17;20.00;99.90
1355;DHT22;671;48.972;9.276;2023-05-14T09:16:45;19.90;99.90
1355;DHT22;671;48.972;9.276;2023-05-14T09:19:13;19.70;99.90
1355;DHT22;671;48.972;9.276;2023-05-14T09:21:41;19.50;99.90
1355;DHT22;671;48.972;9.276;2023-05-14T09:24:21;19.40;99.90
1355;DHT22;671;48.972;9.276;2023-05-14T09:26:52;19.20;99.90
1355;DHT22;671;48.972;9.276;2023-05-14T09:29:19;19.10;99.90
1355;DHT22;671;48.972;9.276;2023-05-14T09:31:49;18.90;99.90
1355;DHT22;671;48.972;9.276;2023-05-14T09:34:26;18.80;99.90
1355;DHT22;671;48.972;9.276;2023-05-14T09:36:55;18.70;99.90
1355;DHT22;671;48.972;9.276;2023-05-14T09:39:23;18.60;99.90
1355;DHT22;671;48.972;9.276;2023-05-14T09:41:50;18.60;99.90
1355;DHT22;671;48.972;9.276;2023-05-14T09:44:20;18.50;99.90
1355;DHT22;671;48.972;9.276;2023-05-14T09:46:48;18.50;99.90
1355;DHT22;671;48.972;9.276;2023-05-14T09:49:15;18.50;99.90
1355;DHT22;671;48.972;9.276;2023-05-14T09:51:41;18.60;99.90
1355;DHT22;671;48.972;9.276;2023-05-14T09:54:08;18.60;99.90
1355;DHT22;671;48.972;9.276;2023-05-14T09:56:36;18.90;99.90
1355;DHT22;671;48.972;9.276;2023-05-14T09:59:03;19.30;99.90
1355;DHT22;671;48.972;9.276;2023-05-14T10:01:30;19.40;99.90
1355;DHT22;671;48.972;9.276;2023-05-14T10:03:58;19.30;99.90
1355;DHT22;671;48.972;9.276;2023-05-14T10:06:29;19.10;99.90
1355;DHT22;671;48.972;9.276;2023-05-14T10:09:00;19.00;99.90
1355;DHT22;671;48.972;9.276;2023-05-14T10:11:30;19.00;99.90
1355;DHT22;671;48.972;9.276;2023-05-14T10:14:07;18.90;99.90
1355;DHT22;671;48.972;9.276;2023-05-14T10:16:36;18.80;99.90
1355;DHT22;671;48.972;9.276;2023-05-14T10:19:07;18.80;99.90
1355;DHT22;671;48.972;9.276;2023-05-14T10:21:35;18.80;99.90
1355;DHT22;671;48.972;9.276;2023-05-14T10:24:03;18.80;99.90
1355;DHT22;671;48.972;9.276;2023-05-14T10:26:37;18.90;99.90
1355;DHT22;671;48.972;9.276;2023-05-14T10:29:05;19.10;99.90
1355;DHT22;671;48.972;9.276;2023-05-14T10:31:48;19.20;99.90
1355;DHT22;671;48.972;9.276;2023-05-14T10:34:40;19.40;99.90
1355;DHT22;671;48.972;9.276;2023-05-14T10:37:09;19.50;99.90
1355;DHT22;671;48.972;9.276;2023-05-14T10:39:43;19.50;99.90
1355;DHT22;671;48.972;9.276;2023-05-14T10:42:12;19.70;99.90
1355;DHT22;671;48.972;9.276;2023-05-14T10:44:50;19.80;99.90
1355;DHT22;671;48.972;9.276;2023-05-14T10:47:17;19.90;99.90
1355;DHT22;671;48.972;9.276;2023-05-14T10:49:45;20.00;99.90
1355;DHT22;671;48.972;9.276;2023-05-14T10:52:18;20.30;99.90
1355;DHT22;671;48.972;9.276;2023-05-14T10:54:48;20.60;99.90
1355;DHT22;671;48.972;9.276;2023-05-14T10:57:17;20.90;99.90
1355;DHT22;671;48.972;9.276;2023-05-14T10:59:46;21.10;99.90
1355;DHT22;671;48.972;9.276;2023-05-14T11:05:06;20.70;99.90
1355;DHT22;671;48.972;9.276;2023-05-14T11:07:47;20.60;99.90
1355;DHT22;671;48.972;9.276;2023-05-14T11:10:19;20.50;99.90
1355;DHT22;671;48.972;9.276;2023-05-14T11:12:48;20.40;99.90
1355;DHT22;671;48.972;9.276;2023-05-14T11:15:20;20.40;99.90
1355;DHT22;671;48.972;9.276;2023-05-14T11:17:48;20.50;99.90
1355;DHT22;671;48.972;9.276;2023-05-14T11:20:15;20.60;99.90
1355;DHT22;671;48.972;9.276;2023-05-14T11:22:43;20.60;99.90
1355;DHT22;671;48.972;9.276;2023-05-14T11:25:11;20.70;99.90
1355;DHT22;671;48.972;9.276;2023-05-14T11:27:42;20.80;99.90
1355;DHT22;671;48.972;9.276;2023-05-14T11:30:16;20.90;99.90
1355;DHT22;671;48.972;9.276;2023-05-14T11:32:45;21.00;99.90
1355;DHT22;671;48.972;9.276;2023-05-14T11:35:12;20.90;99.90
1355;DHT22;671;48.972;9.276;2023-05-14T11:37:38;20.80;99.90
1355;DHT22;671;48.972;9.276;2023-05-14T11:40:15;20.70;99.90
1355;DHT22;671;48.972;9.276;2023-05-14T11:42:44;20.60;99.90
1355;DHT22;671;48.972;9.276;2023-05-14T11:45:12;20.70;99.90
1355;DHT22;671;48.972;9.276;2023-05-14T11:47:40;20.80;99.90
1355;DHT22;671;48.972;9.276;2023-05-14T11:50:07;20.90;99.90
1355;DHT22;671;48.972;9.276;2023-05-14T11:52:39;21.10;99.90
1355;DHT22;671;48.972;9.276;2023-05-14T11:55:10;21.20;99.90
1355;DHT22;671;48.972;9.276;2023-05-14T11:57:37;21.20;99.90
1355;DHT22;671;48.972;9.276;2023-05-14T12:00:07;21.30;99.90
1355;DHT22;671;48.972;9.276;2023-05-14T12:02:35;21.30;99.90
1355;DHT22;671;48.972;9.276;2023-05-14T12:05:04;21.60;99.90
1355;DHT22;671;48.972;9.276;2023-05-14T12:07:32;21.60;99.90
1355;DHT22;671;48.972;9.276;2023-05-14T12:10:00;21.50;99.90
1355;DHT22;671;48.972;9.276;2023-05-14T12:12:27;21.40;99.90
1355;DHT22;671;48.972;9.276;2023-05-14T12:14:53;21.40;99.90
1355;DHT22;671;48.972;9.276;2023-05-14T12:17:21;21.40;99.90
1355;DHT22;671;48.972;9.276;2023-05-14T12:19:51;21.30;99.90
1355;DHT22;671;48.972;9.276;2023-05-14T12:22:20;21.20;99.90
1355;DHT22;671;48.972;9.276;2023-05-14T12:24:54;21.20;99.90
1355;DHT22;671;48.972;9.276;2023-05-14T12:27:26;21.20;99.90
1355;DHT22;671;48.972;9.276;2023-05-14T12:30:02;21.20;99.90
1355;DHT22;671;48.972;9.276;2023-05-14T12:32:32;21.40;99.90
1355;DHT22;671;48.972;9.276;2023-05-14T12:34:59;21.50;99.90
1355;DHT22;671;48.972;9.276;2023-05-14T12:37:29;21.80;99.90
1355;DHT22;671;48.972;9.276;2023-05-14T12:39:56;22.00;99.90
1355;DHT22;671;48.972;9.276;2023-05-14T12:42:22;22.20;99.90
1355;DHT22;671;48.972;9.276;2023-05-14T12:44:49;22.30;99.90
1355;DHT22;671;48.972;9.276;2023-05-14T12:47:15;22.30;99.90
1355;DHT22;671;48.972;9.276;2023-05-14T12:49:42;22.40;99.90
1355;DHT22;671;48.972;9.276;2023-05-14T12:52:08;22.40;99.90
1355;DHT22;671;48.972;9.276;2023-05-14T12:54:35;22.30;99.90
1355;DHT22;671;48.972;9.276;2023-05-14T12:57:03;21.90;99.90
1355;DHT22;671;48.972;9.276;2023-05-14T12:59:29;21.60;99.90
1355;DHT22;671;48.972;9.276;2023-05-14T13:01:56;21.40;99.90
1355;DHT22;671;48.972;9.276;2023-05-14T13:04:22;21.30;99.90
1355;DHT22;671;48.972;9.276;2023-05-14T13:06:49;21.10;99.90
1355;DHT22;671;48.972;9.276;2023-05-14T13:09:15;21.00;99.90
1355;DHT22;671;48.972;9.276;2023-05-14T13:11:41;21.10;99.90
1355;DHT22;671;48.972;9.276;2023-05-14T13:14:08;21.10;99.90
1355;DHT22;671;48.972;9.276;2023-05-14T13:16:35;21.10;99.90
1355;DHT22;671;48.972;9.276;2023-05-14T13:19:01;21.00;99.90
1355;DHT22;671;48.972;9.276;2023-05-14T13:21:28;21.10;99.90
1355;DHT22;671;48.972;9.276;2023-05-14T13:23:54;21.10;99.90
1355;DHT22;671;48.972;9.276;2023-05-14T13:26:21;21.10;99.90
1355;DHT22;671;48.972;9.276;2023-05-14T13:28:47;21.20;99.90
1355;DHT22;671;48.972;9.276;2023-05-14T13:31:14;21.20;99.90
1355;DHT22;671;48.972;9.276;2023-05-14T13:33:42;21.40;99.90
1355;DHT22;671;48.972;9.276;2023-05-14T13:36:10;21.50;99.90
1355;DHT22;671;48.972;9.276;2023-05-14T13:38:37;21.60;99.90
1355;DHT22;671;48.972;9.276;2023-05-14T13:41:04;21.50;99.90
1355;DHT22;671;48.972;9.276;2023-05-14T13:43:32;21.40;99.90
1355;DHT22;671;48.972;9.276;2023-05-14T13:46:00;21.50;99.90
1355;DHT22;671;48.972;9.276;2023-05-14T13:48:26;21.40;99.90
1355;DHT22;671;48.972;9.276;2023-05-14T13:50:53;21.10;99.90
1355;DHT22;671;48.972;9.276;2023-05-14T13:53:21;21.00;99.90
1355;DHT22;671;48.972;9.276;2023-05-14T13:55:49;20.90;99.90
1355;DHT22;671;48.972;9.276;2023-05-14T13:58:15;20.70;99.90
1355;DHT22;671;48.972;9.276;2023-05-14T14:00:42;20.40;99.90
1355;DHT22;671;48.972;9.276;2023-05-14T14:03:08;20.20;99.90
1355;DHT22;671;48.972;9.276;2023-05-14T14:05:35;20.20;99.90
1355;DHT22;671;48.972;9.276;2023-05-14T14:08:02;20.50;99.90
1355;DHT22;671;48.972;9.276;2023-05-14T14:10:28;20.70;99.90
1355;DHT22;671;48.972;9.276;2023-05-14T14:12:55;20.90;99.90
1355;DHT22;671;48.972;9.276;2023-05-14T14:15:21;21.00;99.90
1355;DHT22;671;48.972;9.276;2023-05-14T14:17:48;21.20;99.90
1355;DHT22;671;48.972;9.276;2023-05-14T14:20:14;21.40;99.90
1355;DHT22;671;48.972;9.276;2023-05-14T14:22:42;21.50;99.90
1355;DHT22;671;48.972;9.276;2023-05-14T14:25:10;21.70;99.90
1355;DHT22;671;48.972;9.276;2023-05-14T14:27:38;21.80;99.90
1355;DHT22;671;48.972;9.276;2023-05-14T14:30:10;21.90;99.90
1355;DHT22;671;48.972;9.276;2023-05-14T14:32:45;22.20;99.90
1355;DHT22;671;48.972;9.276;2023-05-14T14:35:13;22.30;99.90
1355;DHT22;671;48.972;9.276;2023-05-14T14:37:41;22.30;99.90
1355;DHT22;671;48.972;9.276;2023-05-14T14:40:09;22.30;99.90
1355;DHT22;671;48.972;9.276;2023-05-14T14:42:36;22.00;99.90
1355;DHT22;671;48.972;9.276;2023-05-14T14:45:03;22.00;99.90
1355;DHT22;671;48.972;9.276;2023-05-14T14:47:30;21.80;99.90
1355;DHT22;671;48.972;9.276;2023-05-14T14:49:57;21.70;99.90
1355;DHT22;671;48.972;9.276;2023-05-14T14:52:25;21.50;99.90
1355;DHT22;671;48.972;9.276;2023-05-14T14:54:52;21.40;99.90
1355;DHT22;671;48.972;9.276;2023-05-14T14:57:19;21.30;99.90
1355;DHT22;671;48.972;9.276;2023-05-14T14:59:45;21.20;99.90
1355;DHT22;671;48.972;9.276;2023-05-14T15:02:12;21.00;99.90
1355;DHT22;671;48.972;9.276;2023-05-14T15:04:39;20.80;99.90
1355;DHT22;671;48.972;9.276;2023-05-14T15:07:05;20.70;99.90
1355;DHT22;671;48.972;9.276;2023-05-14T15:09:32;20.60;99.90
1355;DHT22;671;48.972;9.276;2023-05-14T15:11:58;20.50;99.90
1355;DHT22;671;48.972;9.276;2023-05-14T15:14:26;20.50;99.90
1355;DHT22;671;48.972;9.276;2023-05-14T15:16:52;20.40;99.90
1355;DHT22;671;48.972;9.276;2023-05-14T15:19:19;20.40;99.90
1355;DHT22;671;48.972;9.276;2023-05-14T15:21:45;20.30;99.90
1355;DHT22;671;48.972;9.276;2023-05-14T15:24:12;20.30;99.90
1355;DHT22;671;48.972;9.276;2023-05-14T15:26:39;20.30;99.90
1355;DHT22;671;48.972;9.276;2023-05-14T15:29:05;20.20;99.90
1355;DHT22;671;48.972;9.276;2023-05-14T15:31:32;20.20;99.90
1355;DHT22;671;48.972;9.276;2023-05-14T15:33:59;20.00;99.90
1355;DHT22;671;48.972;9.276;2023-05-14T15:36:26;19.90;99.90
1355;DHT22;671;48.972;9.276;2023-05-14T15:38:53;19.90;99.90
1355;DHT22;671;48.972;9.276;2023-05-14T15:41:20;19.80;99.90
1355;DHT22;671;48.972;9.276;2023-05-14T15:43:47;19.80;99.90
1355;DHT22;671;48.972;9.276;2023-05-14T15:46:14;19.90;99.90
1355;DHT22;671;48.972;9.276;2023-05-14T15:48:40;19.90;99.90
1355;DHT22;671;48.972;9.276;2023-05-14T15:51:07;19.90;99.90
1355;DHT22;671;48.972;9.276;2023-05-14T15:53:33;19.80;99.90
1355;DHT22;671;48.972;9.276;2023-05-14T15:56:00;19.90;99.90
1355;DHT22;671;48.972;9.276;2023-05-14T15:58:27;19.90;99.90
1355;DHT22;671;48.972;9.276;2023-05-14T16:00:54;20.00;99.90
1355;DHT22;671;48.972;9.276;2023-05-14T16:03:20;20.10;99.90
1355;DHT22;671;48.972;9.276;2023-05-14T16:05:46;20.10;99.90
1355;DHT22;671;48.972;9.276;2023-05-14T16:08:13;19.90;99.90
1355;DHT22;671;48.972;9.276;2023-05-14T16:10:40;19.70;99.90
1355;DHT22;671;48.972;9.276;2023-05-14T16:13:06;19.50;99.90
1355;DHT22;671;48.972;9.276;2023-05-14T16:15:33;19.60;99.90
1355;DHT22;671;48.972;9.276;2023-05-14T16:17:59;19.70;99.90
1355;DHT22;671;48.972;9.276;2023-05-14T16:20:26;19.60;99.90
1355;DHT22;671;48.972;9.276;2023-05-14T16:22:52;19.60;99.90
1355;DHT22;671;48.972;9.276;2023-05-14T16:25:19;19.60;99.90